Keene, NH

10:19 PM EST on December 24, 2014 (GMT -0500)
Keene (Royal Ave) | Change Station
CLOSE
Current Station
Personal Weather Station
Location: Keene, NH
Elevation: 505 ft
Nearby Weather Stations
Active Advisory: Areal Flood Watch

Elev 505 ft 42.94 °N, 72.31 °W | Updated 7 seconds ago

Overcast
Overcast
36.7 °F
Feels Like 37 °F
N
0.0
Wind Variable Wind from North
Gusts 0.0 mph

Today
High -- | Low -- °F
--% Chance of Precip.
Yesterday
High -- | Low -- °F
Precip. -- in
7:18 AM 4:19 PM
Waxing Crescent, 13% visible
Pressure 29.59 in
Visibility 2.5 miles
Clouds Mostly Cloudy 500 ft
Overcast 1100 ft
Windchill 37 °F
Dew Point 35 °F
Humidity 93%
Rainfall 0.00 in
Snow Depth Not available.
UV 0 out of 12
Pollen .10 out of 12
Air Quality Not available.
Flu Activity Not available.
METAR KEEN 250315Z AUTO 00000KT 2 1/2SM BKN005 OVC011 04/03 A2959 RMK AO1 P0001

More Conditions Fewer Conditions

Pressure 29.59 in
Visibility 2.5 miles
Clouds Mostly Cloudy 500 ft
Overcast 1100 ft
Windchill 37 °F
Dew Point 35 °F
Humidity 93%
Rainfall 0.00 in
Snow Depth Not available.
UV 0 out of 12
Pollen .10 out of 12
Air Quality Not available.
Flu Activity Not available.
METAR KEEN 250315Z AUTO 00000KT 2 1/2SM BKN005 OVC011 04/03 A2959 RMK AO1 P0001

More Conditions Fewer Conditions

10-Day Weather Forecast

Almanac

Astronomy

Dec. 24, 2014 Rise Set
Actual Time
Civil Twilight
Nautical Twilight
Astronomical Twilight
Moon
Length of Visible Light
Length of Day
Tomorrow will be .
, % of the Moon is Illuminated

Today's Extremes

State Highs State Lows

Community

WunderPhotos

Upload Photos

1,780,224 photos uploaded!

WunderBlogs® & News

Nearby

Air Quality

  Air Quality AQ Index Pollutant
Not available.

Snow Depth

Station Depth Elevation

Earthquake Activity

City Distance Mag. Time & Date
Minimum magnitude displayed is 2.5.

Coastal Water Temperatures

Place Temperature

Nearby Weather Stations